Terminal Aerodrome Forecast
Issued by NWS Sioux Falls, SD

Home | Current Version | Previous Version | Text Only | Print | Product List | Glossary Off
Versions: 1 2 3 4 5 6 7 8 9 10 11 12 13 14 15 16

000
FTUS43 KFSD 272320
TAFFSD
TAF
KFSD 272320Z 2800/2824 15013G19KT P6SM SKC
      TEMPO 2806/2810 6SM TSRA OVC035CB
     FM281000 18010KT 6SM BR SCT007
     FM281600 29012G20KT P6SM BKN025=

USA.gov is the U.S. government's official web portal to all federal, state and local government web resources and services.